createdAt,value
2022-10-14T00:00:06.100Z,17.30
2022-10-14T00:00:18.022Z,17.30
2022-10-14T00:00:29.859Z,17.30
2022-10-14T00:00:42.210Z,17.30
2022-10-14T00:00:54.062Z,17.30
2022-10-14T00:01:12.373Z,17.30
2022-10-14T00:01:24.577Z,17.30
2022-10-14T00:01:36.445Z,17.30
2022-10-14T00:01:48.774Z,17.30
2022-10-14T00:02:00.684Z,17.30
2022-10-14T00:02:12.579Z,17.30
2022-10-14T00:02:24.410Z,17.30
2022-10-14T00:02:36.355Z,17.30
2022-10-14T00:02:48.150Z,17.30
2022-10-14T00:02:59.977Z,17.40
2022-10-14T00:03:11.764Z,17.40
2022-10-14T00:03:23.530Z,17.40
2022-10-14T00:03:36.304Z,17.40
2022-10-14T00:03:48.191Z,17.40
2022-10-14T00:04:00.223Z,17.40
2022-10-14T00:04:11.959Z,17.40
2022-10-14T00:04:23.807Z,17.40
2022-10-14T00:04:35.585Z,17.40
2022-10-14T00:04:47.371Z,17.40
2022-10-14T00:04:59.134Z,17.40
2022-10-14T00:05:11.069Z,17.40
2022-10-14T00:05:22.870Z,17.50
2022-10-14T00:05:34.680Z,17.50
2022-10-14T00:05:46.542Z,17.50
2022-10-14T00:05:58.535Z,17.50
2022-10-14T00:06:14.112Z,17.50
2022-10-14T00:06:31.261Z,17.50
2022-10-14T00:06:43.075Z,17.50
2022-10-14T00:06:54.960Z,17.50
2022-10-14T00:07:06.815Z,17.50
2022-10-14T00:07:18.827Z,17.50
2022-10-14T00:07:30.793Z,17.50
2022-10-14T00:07:43.393Z,17.50
2022-10-14T00:07:55.289Z,17.50
2022-10-14T00:08:07.069Z,17.50
2022-10-14T00:08:18.882Z,17.50
2022-10-14T00:08:30.653Z,17.50
2022-10-14T00:08:42.729Z,17.50
2022-10-14T00:08:54.839Z,17.50
2022-10-14T00:09:09.082Z,17.40
2022-10-14T00:09:20.974Z,17.40
2022-10-14T00:09:32.820Z,17.40
2022-10-14T00:09:44.658Z,17.40
2022-10-14T00:09:56.450Z,17.40
2022-10-14T00:10:08.494Z,17.40
2022-10-14T00:10:20.336Z,17.40
2022-10-14T00:10:32.155Z,17.40
2022-10-14T00:10:44.129Z,17.50
2022-10-14T00:10:56.019Z,17.40
2022-10-14T00:11:13.314Z,17.40
2022-10-14T00:11:28.169Z,17.40
2022-10-14T00:11:40.528Z,17.40
2022-10-14T00:11:52.309Z,17.50
2022-10-14T00:12:04.309Z,17.50
2022-10-14T00:12:16.138Z,17.50
2022-10-14T00:12:29.623Z,17.50
2022-10-14T00:12:41.612Z,17.50
2022-10-14T00:12:53.440Z,17.40
2022-10-14T00:13:05.365Z,17.50
2022-10-14T00:13:17.226Z,17.50
2022-10-14T00:13:29.083Z,17.50
2022-10-14T00:13:40.895Z,17.50
2022-10-14T00:13:59.542Z,17.40
2022-10-14T00:14:15.780Z,17.50
2022-10-14T00:14:27.564Z,17.40
2022-10-14T00:14:39.541Z,17.40
2022-10-14T00:14:51.330Z,17.40
2022-10-14T00:15:03.341Z,17.40
2022-10-14T00:15:15.219Z,17.40
2022-10-14T00:15:27.059Z,17.50
2022-10-14T00:15:42.079Z,17.50
2022-10-14T00:15:53.912Z,17.50
2022-10-14T00:16:06.503Z,17.50
2022-10-14T00:16:21.038Z,17.50
2022-10-14T00:16:35.583Z,17.50
2022-10-14T00:16:48.994Z,17.50
2022-10-14T00:17:01.143Z,17.50
2022-10-14T00:17:13.003Z,17.50
2022-10-14T00:17:24.892Z,17.40
2022-10-14T00:17:36.859Z,17.50
2022-10-14T00:17:48.738Z,17.40
2022-10-14T00:18:00.613Z,17.40
2022-10-14T00:18:12.453Z,17.40
2022-10-14T00:18:24.194Z,17.40
2022-10-14T00:18:36.070Z,17.40
2022-10-14T00:18:48.246Z,17.40
2022-10-14T00:19:00.278Z,17.40
2022-10-14T00:19:12.803Z,17.50
2022-10-14T00:19:24.562Z,17.50
2022-10-14T00:19:36.455Z,17.50
2022-10-14T00:19:48.606Z,17.50
2022-10-14T00:20:00.795Z,17.50
2022-10-14T00:20:12.677Z,17.50
2022-10-14T00:20:24.548Z,17.50
2022-10-14T00:20:36.410Z,17.50
2022-10-14T00:21:01.523Z,17.50
2022-10-14T00:21:13.557Z,17.50
2022-10-14T00:21:25.949Z,17.50
2022-10-14T00:21:39.285Z,17.50
2022-10-14T00:21:51.171Z,17.50
2022-10-14T00:22:02.984Z,17.50
2022-10-14T00:22:14.871Z,17.50
2022-10-14T00:22:26.842Z,17.50
2022-10-14T00:22:38.608Z,17.40
2022-10-14T00:22:50.454Z,17.40
2022-10-14T00:23:02.628Z,17.40
2022-10-14T00:23:14.480Z,17.40
2022-10-14T00:23:26.534Z,17.40
2022-10-14T00:23:38.705Z,17.40
2022-10-14T00:23:51.025Z,17.40
2022-10-14T00:24:02.931Z,17.40
2022-10-14T00:24:16.087Z,17.40
2022-10-14T00:24:28.450Z,17.40
2022-10-14T00:24:40.344Z,17.40
2022-10-14T00:24:52.231Z,17.40
2022-10-14T00:25:04.416Z,17.40
2022-10-14T00:25:16.200Z,17.40
2022-10-14T00:25:28.265Z,17.40
2022-10-14T00:25:40.099Z,17.40
2022-10-14T00:25:52.161Z,17.40
2022-10-14T00:26:04.064Z,17.40
2022-10-14T00:26:30.955Z,17.40
2022-10-14T00:26:44.270Z,17.40
2022-10-14T00:26:56.120Z,17.40
2022-10-14T00:27:08.318Z,17.40
2022-10-14T00:27:20.371Z,17.40
2022-10-14T00:27:32.347Z,17.40
2022-10-14T00:27:44.262Z,17.40
2022-10-14T00:27:56.036Z,17.40
2022-10-14T00:28:07.817Z,17.40
2022-10-14T00:28:19.893Z,17.30
2022-10-14T00:28:31.930Z,17.30
2022-10-14T00:28:43.776Z,17.30
2022-10-14T00:28:55.948Z,17.40
2022-10-14T00:29:11.937Z,17.40
2022-10-14T00:29:24.276Z,17.40
2022-10-14T00:29:36.139Z,17.40
2022-10-14T00:29:47.980Z,17.40
2022-10-14T00:29:59.833Z,17.40
2022-10-14T00:30:12.324Z,17.40
2022-10-14T00:30:24.218Z,17.50
2022-10-14T00:30:36.019Z,17.50
2022-10-14T00:31:00.684Z,17.50
2022-10-14T00:31:12.553Z,17.40
2022-10-14T00:31:24.463Z,17.40
2022-10-14T00:31:36.303Z,17.40
2022-10-14T00:31:48.322Z,17.40
2022-10-14T00:32:00.096Z,17.40
2022-10-14T00:32:12.138Z,17.40
2022-10-14T00:32:23.966Z,17.40
2022-10-14T00:32:35.731Z,17.40
2022-10-14T00:32:47.497Z,17.40
2022-10-14T00:32:59.308Z,17.40
2022-10-14T00:33:11.058Z,17.40
2022-10-14T00:33:24.230Z,17.40
2022-10-14T00:33:36.039Z,17.40
2022-10-14T00:33:48.185Z,17.40
2022-10-14T00:33:59.996Z,17.30
2022-10-14T00:34:13.199Z,17.30
2022-10-14T00:34:25.046Z,17.30
2022-10-14T00:34:36.917Z,17.30
2022-10-14T00:34:48.697Z,17.30
2022-10-14T00:35:00.487Z,17.30
2022-10-14T00:35:12.303Z,17.30
2022-10-14T00:35:24.066Z,17.30
2022-10-14T00:35:35.891Z,17.30
2022-10-14T00:35:58.389Z,17.30
2022-10-14T00:36:12.690Z,17.30
2022-10-14T00:36:24.931Z,17.30
2022-10-14T00:36:36.772Z,17.30
2022-10-14T00:36:48.568Z,17.30
2022-10-14T00:37:00.404Z,17.20
2022-10-14T00:37:12.205Z,17.20
2022-10-14T00:37:24.295Z,17.20
2022-10-14T00:37:36.346Z,17.20
2022-10-14T00:37:48.190Z,17.20
2022-10-14T00:38:00.021Z,17.20
2022-10-14T00:38:11.892Z,17.20
2022-10-14T00:38:23.842Z,17.20
2022-10-14T00:38:35.995Z,17.20
2022-10-14T00:38:48.575Z,17.20
2022-10-14T00:39:00.366Z,17.20
2022-10-14T00:39:12.302Z,17.30
2022-10-14T00:39:24.092Z,17.20
2022-10-14T00:39:36.325Z,17.20
2022-10-14T00:39:48.159Z,17.30
2022-10-14T00:39:59.939Z,17.20
2022-10-14T00:40:12.506Z,17.20
2022-10-14T00:40:24.402Z,17.20
2022-10-14T00:40:36.167Z,17.20
2022-10-14T00:40:47.961Z,17.20
2022-10-14T00:40:59.822Z,17.30
2022-10-14T00:41:15.105Z,17.30
2022-10-14T00:41:31.260Z,17.30
2022-10-14T00:41:43.325Z,17.30
2022-10-14T00:41:55.113Z,17.20
2022-10-14T00:42:12.136Z,17.20
2022-10-14T00:42:24.033Z,17.20
2022-10-14T00:42:35.834Z,17.20
2022-10-14T00:42:47.698Z,17.20
2022-10-14T00:42:59.490Z,17.20
2022-10-14T00:43:14.122Z,17.20
2022-10-14T00:43:27.078Z,17.20
2022-10-14T00:44:03.000Z,17.20
2022-10-14T00:44:14.771Z,17.20
2022-10-14T00:44:26.427Z,17.20
2022-10-14T00:44:44.143Z,17.20
2022-10-14T00:45:06.509Z,17.20
2022-10-14T00:45:23.304Z,17.20
2022-10-14T00:45:35.138Z,17.20
2022-10-14T00:45:46.940Z,17.20
2022-10-14T00:45:58.704Z,17.20
2022-10-14T00:46:11.543Z,17.20
2022-10-14T00:46:25.614Z,17.20
2022-10-14T00:46:39.898Z,17.20
2022-10-14T00:46:51.797Z,17.20
2022-10-14T00:47:03.622Z,17.20
2022-10-14T00:47:15.467Z,17.20
2022-10-14T00:47:27.765Z,17.20
2022-10-14T00:47:39.531Z,17.10
2022-10-14T00:47:51.423Z,17.10
2022-10-14T00:48:03.357Z,17.10
2022-10-14T00:48:15.136Z,17.10
2022-10-14T00:48:27.000Z,17.10
2022-10-14T00:48:38.786Z,17.10
2022-10-14T00:48:50.993Z,17.10
2022-10-14T00:49:24.285Z,17.10
2022-10-14T00:49:41.900Z,17.10
2022-10-14T00:49:53.682Z,17.10
2022-10-14T00:50:05.748Z,17.00
2022-10-14T00:50:17.630Z,17.10
2022-10-14T00:50:29.489Z,17.00
2022-10-14T00:50:43.652Z,17.00
2022-10-14T00:50:55.466Z,17.00
2022-10-14T00:51:07.741Z,17.00
2022-10-14T00:51:19.810Z,17.00
2022-10-14T00:51:31.613Z,17.00
2022-10-14T00:51:51.283Z,17.00
2022-10-14T00:52:10.765Z,17.00
2022-10-14T00:52:22.632Z,17.00
2022-10-14T00:52:34.506Z,17.00
2022-10-14T00:52:46.442Z,17.00
2022-10-14T00:52:59.107Z,17.00
2022-10-14T00:53:11.481Z,17.00
2022-10-14T00:53:23.331Z,17.10
2022-10-14T00:53:35.208Z,17.00
2022-10-14T00:53:47.017Z,17.00
2022-10-14T00:53:58.763Z,17.00
2022-10-14T00:54:11.491Z,17.00
2022-10-14T00:54:26.030Z,17.00
2022-10-14T00:54:42.209Z,17.10
2022-10-14T00:55:17.970Z,17.10
2022-10-14T00:55:29.745Z,17.10
2022-10-14T00:55:42.660Z,17.00
2022-10-14T00:55:54.440Z,17.10
2022-10-14T00:56:06.462Z,17.00
2022-10-14T00:56:21.931Z,17.00
2022-10-14T00:56:33.738Z,17.00
2022-10-14T00:56:45.580Z,17.00
2022-10-14T00:56:57.498Z,16.90
2022-10-14T00:57:09.572Z,16.90
2022-10-14T00:57:22.299Z,16.90
2022-10-14T00:57:34.523Z,16.90
2022-10-14T00:57:46.455Z,16.90
2022-10-14T00:57:58.249Z,16.90
2022-10-14T00:58:10.133Z,16.90
2022-10-14T00:58:21.930Z,16.90
2022-10-14T00:58:33.794Z,16.90
2022-10-14T00:58:45.760Z,16.90
2022-10-14T00:58:57.758Z,16.90
2022-10-14T00:59:09.523Z,16.90
2022-10-14T00:59:21.320Z,16.90
2022-10-14T00:59:33.501Z,16.90
2022-10-14T00:59:45.336Z,16.90
2022-10-14T01:00:02.591Z,16.90
2022-10-14T01:00:17.186Z,16.90
2022-10-14T01:00:29.144Z,16.90
2022-10-14T01:00:40.969Z,16.90
2022-10-14T01:00:52.741Z,16.90
2022-10-14T01:01:04.616Z,17.00
2022-10-14T01:01:16.503Z,16.90
2022-10-14T01:01:28.438Z,17.00
2022-10-14T01:01:40.474Z,17.00
2022-10-14T01:01:52.275Z,17.00
2022-10-14T01:02:04.257Z,17.00
2022-10-14T01:02:16.050Z,17.00
2022-10-14T01:02:27.814Z,17.00
2022-10-14T01:02:41.309Z,17.00
2022-10-14T01:02:56.228Z,17.00
2022-10-14T01:03:20.694Z,17.00
2022-10-14T01:03:33.524Z,17.00
2022-10-14T01:03:45.384Z,17.00
2022-10-14T01:03:57.227Z,17.00
2022-10-14T01:04:09.004Z,17.00
2022-10-14T01:04:20.842Z,17.00
2022-10-14T01:04:33.027Z,17.00
2022-10-14T01:04:45.031Z,17.00
2022-10-14T01:04:56.778Z,17.00
2022-10-14T01:05:10.390Z,17.00
2022-10-14T01:05:22.306Z,17.00
2022-10-14T01:05:38.505Z,17.00
2022-10-14T01:06:49.110Z,17.00
2022-10-14T01:07:22.789Z,17.10
2022-10-14T01:08:15.170Z,17.10
2022-10-14T01:08:31.767Z,17.10
2022-10-14T01:09:14.165Z,17.10
2022-10-14T01:10:15.289Z,17.10
2022-10-14T01:10:43.771Z,17.00
2022-10-14T01:11:07.636Z,17.00
2022-10-14T01:11:37.906Z,17.00
2022-10-14T01:12:37.511Z,17.00
2022-10-14T01:13:17.624Z,17.10
2022-10-14T01:13:32.829Z,17.00
2022-10-14T01:14:09.891Z,17.00
2022-10-14T01:14:49.188Z,17.00
2022-10-14T01:15:45.493Z,16.90
2022-10-14T01:16:15.510Z,16.90
2022-10-14T01:16:39.442Z,16.80
2022-10-14T01:17:14.722Z,16.80
2022-10-14T01:18:02.872Z,16.80
2022-10-14T01:18:47.483Z,16.80
2022-10-14T01:19:26.429Z,16.80
2022-10-14T01:20:37.852Z,16.80
2022-10-14T01:21:11.594Z,16.80
2022-10-14T01:21:33.592Z,16.80
2022-10-14T01:21:52.342Z,16.80
2022-10-14T01:22:43.614Z,16.90
2022-10-14T01:23:41.663Z,16.80
2022-10-14T01:24:20.879Z,16.90
2022-10-14T01:25:07.677Z,16.90
2022-10-14T01:25:31.566Z,16.90
2022-10-14T01:26:25.045Z,16.80
2022-10-14T01:27:07.701Z,16.80
2022-10-14T01:27:56.697Z,16.70
2022-10-14T01:28:17.254Z,16.70
2022-10-14T01:29:08.658Z,16.70
2022-10-14T01:29:27.673Z,16.70
2022-10-14T01:30:20.515Z,16.70
2022-10-14T01:30:34.610Z,16.60
2022-10-14T01:31:03.773Z,16.60
2022-10-14T01:31:19.406Z,16.60
2022-10-14T01:31:34.488Z,16.60
2022-10-14T01:31:49.172Z,16.60
2022-10-14T01:32:40.774Z,16.60
2022-10-14T01:33:15.859Z,16.60
2022-10-14T01:33:31.877Z,16.70
2022-10-14T01:33:45.058Z,16.60
2022-10-14T01:33:58.372Z,16.60
2022-10-14T01:34:10.649Z,16.60
2022-10-14T01:34:27.431Z,16.70
2022-10-14T01:34:45.139Z,16.70
2022-10-14T01:35:02.645Z,16.70
2022-10-14T01:35:34.084Z,16.70
2022-10-14T01:36:15.200Z,16.70
2022-10-14T01:36:30.616Z,16.60
2022-10-14T01:36:52.872Z,16.60
2022-10-14T01:37:10.022Z,16.70
2022-10-14T01:37:24.785Z,16.70
2022-10-14T01:37:38.841Z,16.70
2022-10-14T01:38:02.614Z,16.70
2022-10-14T01:38:28.708Z,16.70
2022-10-14T01:39:02.142Z,16.80
2022-10-14T01:39:27.425Z,16.70
2022-10-14T01:39:45.873Z,16.70
2022-10-14T01:40:05.945Z,16.70
2022-10-14T01:40:34.818Z,16.70
2022-10-14T01:41:23.013Z,16.60
2022-10-14T01:41:38.920Z,16.60
2022-10-14T01:42:01.284Z,16.60
2022-10-14T01:42:20.301Z,16.60
2022-10-14T01:42:34.894Z,16.60
2022-10-14T01:42:46.667Z,16.70
2022-10-14T01:42:59.053Z,16.70
2022-10-14T01:43:11.394Z,16.70
2022-10-14T01:43:23.715Z,16.70
2022-10-14T01:43:35.592Z,16.70
2022-10-14T01:43:49.270Z,16.70
2022-10-14T01:44:04.256Z,16.80
2022-10-14T01:44:17.207Z,16.80
2022-10-14T01:44:28.993Z,16.80
2022-10-14T01:44:43.418Z,16.80
2022-10-14T01:45:09.277Z,16.80
2022-10-14T01:45:22.280Z,16.80
2022-10-14T01:45:35.368Z,16.80
2022-10-14T01:45:47.831Z,16.90
2022-10-14T01:46:01.098Z,16.90
2022-10-14T01:46:12.973Z,16.90
2022-10-14T01:46:25.837Z,16.90
2022-10-14T01:46:39.517Z,16.90
2022-10-14T01:46:54.227Z,16.90
2022-10-14T01:47:06.077Z,16.80
2022-10-14T01:47:19.800Z,16.90
2022-10-14T01:47:32.936Z,16.80
2022-10-14T01:47:44.845Z,16.90
2022-10-14T01:47:56.623Z,16.90
2022-10-14T01:48:08.449Z,16.90
2022-10-14T01:48:22.854Z,16.90
2022-10-14T01:48:36.960Z,16.90
2022-10-14T01:48:53.418Z,16.90
2022-10-14T01:49:09.231Z,16.90
2022-10-14T01:49:36.228Z,16.90
2022-10-14T01:49:53.852Z,16.90
2022-10-14T01:50:20.352Z,16.90
2022-10-14T01:50:32.092Z,17.00
2022-10-14T01:50:44.186Z,17.00
2022-10-14T01:50:56.580Z,16.90
2022-10-14T01:51:15.136Z,17.00
2022-10-14T01:51:43.094Z,17.00
2022-10-14T01:52:01.952Z,17.00
2022-10-14T01:52:22.806Z,17.00
2022-10-14T01:52:39.572Z,17.00
2022-10-14T01:53:14.591Z,17.00
2022-10-14T01:53:30.516Z,17.00
2022-10-14T01:53:52.633Z,17.00
2022-10-14T01:54:09.015Z,17.00
2022-10-14T01:54:28.527Z,17.00
2022-10-14T01:54:41.784Z,17.00
2022-10-14T01:54:56.366Z,17.10
2022-10-14T01:55:11.680Z,17.00
2022-10-14T01:55:26.669Z,17.10
2022-10-14T01:55:44.321Z,17.00
2022-10-14T01:55:56.061Z,17.00
2022-10-14T01:56:07.900Z,17.00
2022-10-14T01:56:19.725Z,17.00
2022-10-14T01:56:31.783Z,17.10
2022-10-14T01:56:43.879Z,17.00
2022-10-14T01:56:55.757Z,17.10
2022-10-14T01:57:13.294Z,17.00
2022-10-14T01:57:30.641Z,17.00
2022-10-14T01:57:42.685Z,17.00
2022-10-14T01:57:55.328Z,17.00
2022-10-14T01:58:07.261Z,17.00
2022-10-14T01:58:19.217Z,16.90
2022-10-14T01:58:31.785Z,16.90
2022-10-14T01:58:43.668Z,16.90
2022-10-14T01:58:55.476Z,16.90
2022-10-14T01:59:07.288Z,16.90
2022-10-14T01:59:19.086Z,16.90
2022-10-14T01:59:31.304Z,16.90
2022-10-14T01:59:43.146Z,16.90
2022-10-14T01:59:55.267Z,16.90
2022-10-14T02:00:07.965Z,17.00
2022-10-14T02:00:19.880Z,16.90
2022-10-14T02:00:31.699Z,17.00
2022-10-14T02:00:43.831Z,17.00
2022-10-14T02:00:56.100Z,17.00
2022-10-14T02:01:08.690Z,17.00
2022-10-14T02:01:20.556Z,17.00
2022-10-14T02:01:32.542Z,17.00
2022-10-14T02:01:44.391Z,17.00
2022-10-14T02:01:56.697Z,17.00
2022-10-14T02:02:08.635Z,17.00
2022-10-14T02:02:23.874Z,17.00
2022-10-14T02:02:37.529Z,17.00
2022-10-14T02:02:49.350Z,17.10
2022-10-14T02:03:01.111Z,17.00
2022-10-14T02:03:12.914Z,17.00
2022-10-14T02:03:24.721Z,17.00
2022-10-14T02:03:44.446Z,17.00
2022-10-14T02:03:56.196Z,17.10
2022-10-14T02:04:21.920Z,17.10
2022-10-14T02:04:33.671Z,17.10
2022-10-14T02:04:45.435Z,17.10
2022-10-14T02:04:57.227Z,17.10
2022-10-14T02:05:18.035Z,17.10
2022-10-14T02:05:37.218Z,17.10
2022-10-14T02:05:51.297Z,17.10
2022-10-14T02:06:06.061Z,17.10
2022-10-14T02:06:34.060Z,17.10
2022-10-14T02:07:12.090Z,17.10
2022-10-14T02:07:33.867Z,17.10
2022-10-14T02:07:48.643Z,17.10
2022-10-14T02:08:50.099Z,17.10
2022-10-14T02:09:09.057Z,17.20
2022-10-14T02:09:28.051Z,17.20
2022-10-14T02:10:10.628Z,17.10
2022-10-14T02:11:02.139Z,17.20
2022-10-14T02:11:17.011Z,17.20
2022-10-14T02:11:34.151Z,17.20
2022-10-14T02:12:11.180Z,17.20
2022-10-14T02:12:45.925Z,17.20
2022-10-14T02:13:14.473Z,17.20
2022-10-14T02:14:03.547Z,17.20
2022-10-14T02:14:33.170Z,17.20
2022-10-14T02:15:21.529Z,17.20
2022-10-14T02:16:21.929Z,17.20
2022-10-14T02:16:59.905Z,17.10
2022-10-14T02:17:40.795Z,17.10
2022-10-14T02:18:15.201Z,17.10
2022-10-14T02:18:37.158Z,17.10
2022-10-14T02:19:10.637Z,17.10
2022-10-14T02:19:44.430Z,17.10
2022-10-14T02:20:03.274Z,17.10
2022-10-14T02:20:37.677Z,17.20
2022-10-14T02:21:10.389Z,17.20
2022-10-14T02:21:44.453Z,17.20
2022-10-14T02:22:35.236Z,17.20
2022-10-14T02:23:02.603Z,17.10
2022-10-14T02:23:20.697Z,17.10
2022-10-14T02:23:42.476Z,17.10
2022-10-14T02:24:00.264Z,17.10
2022-10-14T02:24:34.741Z,17.10
2022-10-14T02:24:50.902Z,17.10
2022-10-14T02:25:10.875Z,17.10
2022-10-14T02:25:27.205Z,17.10
2022-10-14T02:25:40.379Z,17.10
2022-10-14T02:25:52.277Z,17.00
2022-10-14T02:26:04.090Z,17.00
2022-10-14T02:26:16.084Z,17.00
2022-10-14T02:26:27.935Z,17.00
2022-10-14T02:26:39.704Z,17.00
2022-10-14T02:26:51.592Z,17.00
2022-10-14T02:27:15.716Z,17.00
2022-10-14T02:27:27.490Z,17.00
2022-10-14T02:27:39.264Z,17.00
2022-10-14T02:27:51.171Z,16.90
2022-10-14T02:28:03.471Z,16.90
2022-10-14T02:28:21.673Z,16.90
2022-10-14T02:28:33.694Z,16.90
2022-10-14T02:28:45.565Z,16.90
2022-10-14T02:28:57.397Z,16.90
2022-10-14T02:29:09.326Z,16.90
2022-10-14T02:29:21.138Z,16.90
2022-10-14T02:29:33.019Z,16.90
2022-10-14T02:29:46.418Z,16.90
2022-10-14T02:29:58.225Z,16.90
2022-10-14T02:30:11.023Z,16.90
2022-10-14T02:30:22.897Z,16.90
2022-10-14T02:30:41.914Z,16.80
2022-10-14T02:30:57.689Z,16.90
2022-10-14T02:31:13.462Z,16.80
2022-10-14T02:31:25.494Z,16.80
2022-10-14T02:31:38.657Z,16.80
2022-10-14T02:31:50.423Z,16.80
2022-10-14T02:32:03.220Z,16.90
2022-10-14T02:32:16.835Z,16.90
2022-10-14T02:32:28.723Z,16.80
2022-10-14T02:32:40.584Z,16.90
2022-10-14T02:32:52.615Z,16.90
2022-10-14T02:33:04.754Z,16.90
2022-10-14T02:33:19.088Z,16.90
2022-10-14T02:33:35.079Z,16.90
2022-10-14T02:33:51.971Z,16.90
2022-10-14T02:34:05.854Z,16.90
2022-10-14T02:34:20.212Z,16.90
2022-10-14T02:34:32.275Z,16.90
2022-10-14T02:34:45.916Z,16.90
2022-10-14T02:34:58.409Z,16.90
2022-10-14T02:35:10.852Z,16.90
2022-10-14T02:35:22.671Z,16.90
2022-10-14T02:35:34.441Z,16.90
2022-10-14T02:35:46.253Z,16.90
2022-10-14T02:35:58.130Z,16.90
2022-10-14T02:36:12.017Z,16.90
2022-10-14T02:36:24.161Z,16.90
2022-10-14T02:36:36.965Z,16.90
2022-10-14T02:36:52.385Z,16.90
2022-10-14T02:37:04.184Z,16.90
2022-10-14T02:37:16.031Z,16.90
2022-10-14T02:37:27.986Z,16.90
2022-10-14T02:37:39.806Z,16.90
2022-10-14T02:37:51.558Z,16.90
2022-10-14T02:38:03.403Z,16.90
2022-10-14T02:38:15.632Z,16.90
2022-10-14T02:38:30.809Z,16.90
2022-10-14T02:38:42.597Z,16.90
2022-10-14T02:38:56.582Z,16.90
2022-10-14T02:39:09.559Z,16.90
2022-10-14T02:39:30.846Z,16.90
2022-10-14T02:39:46.363Z,16.90
2022-10-14T02:40:05.752Z,16.90
2022-10-14T02:40:41.296Z,16.90
2022-10-14T02:40:53.039Z,16.90
2022-10-14T02:41:06.136Z,16.80
2022-10-14T02:41:19.897Z,16.80
2022-10-14T02:41:34.798Z,16.80
2022-10-14T02:41:46.808Z,16.80
2022-10-14T02:41:58.631Z,16.80
2022-10-14T02:42:10.413Z,16.80
2022-10-14T02:42:22.476Z,16.80
2022-10-14T02:42:34.455Z,16.80
2022-10-14T02:42:46.371Z,16.80
2022-10-14T02:42:58.153Z,16.80
2022-10-14T02:43:11.442Z,16.80
2022-10-14T02:43:23.285Z,16.80
2022-10-14T02:43:35.087Z,16.80
2022-10-14T02:43:47.434Z,16.80
2022-10-14T02:43:59.229Z,16.80
2022-10-14T02:44:11.086Z,16.80
2022-10-14T02:44:22.854Z,16.80
2022-10-14T02:44:34.619Z,16.80
2022-10-14T02:44:57.274Z,16.80
2022-10-14T02:45:10.048Z,16.80
2022-10-14T02:45:21.828Z,16.80
2022-10-14T02:45:34.253Z,16.80
2022-10-14T02:45:46.086Z,16.80
2022-10-14T02:45:59.227Z,16.80
2022-10-14T02:46:14.315Z,16.80
2022-10-14T02:46:26.089Z,16.90
2022-10-14T02:46:39.818Z,16.90
2022-10-14T02:46:58.285Z,16.80
2022-10-14T02:47:10.218Z,16.80
2022-10-14T02:47:23.391Z,16.90
2022-10-14T02:47:35.380Z,16.90
2022-10-14T02:47:48.389Z,16.90
2022-10-14T02:48:00.261Z,16.90
2022-10-14T02:48:12.689Z,16.90
2022-10-14T02:48:24.599Z,16.90
2022-10-14T02:48:36.486Z,16.90
2022-10-14T02:48:49.472Z,16.90
2022-10-14T02:49:01.459Z,16.90
2022-10-14T02:49:13.238Z,16.90
2022-10-14T02:49:25.047Z,16.90
2022-10-14T02:49:36.898Z,16.90
2022-10-14T02:49:49.087Z,16.90
2022-10-14T02:50:01.218Z,16.90
2022-10-14T02:50:13.040Z,16.90
2022-10-14T02:50:24.877Z,16.90
2022-10-14T02:50:36.674Z,16.90
2022-10-14T02:50:48.474Z,16.90
2022-10-14T02:51:00.326Z,16.90
2022-10-14T02:51:12.177Z,16.90
2022-10-14T02:51:24.143Z,16.90
2022-10-14T02:51:35.997Z,17.00
2022-10-14T02:51:48.250Z,17.00
2022-10-14T02:52:00.066Z,17.00
2022-10-14T02:52:11.836Z,17.00
2022-10-14T02:52:24.020Z,17.00
2022-10-14T02:52:36.064Z,17.00
2022-10-14T02:52:47.809Z,17.00
2022-10-14T02:52:59.580Z,17.00
2022-10-14T02:53:12.221Z,17.00
2022-10-14T02:53:24.145Z,16.90
2022-10-14T02:53:35.924Z,17.00
2022-10-14T02:53:47.693Z,17.00
2022-10-14T02:54:01.583Z,17.00
2022-10-14T02:54:13.384Z,17.00
2022-10-14T02:54:25.192Z,17.00
2022-10-14T02:54:36.961Z,17.00
2022-10-14T02:54:48.844Z,16.90
2022-10-14T02:55:03.354Z,17.00
2022-10-14T02:55:24.814Z,17.00
2022-10-14T02:55:36.747Z,17.00
2022-10-14T02:55:48.619Z,17.00
2022-10-14T02:56:00.395Z,17.00
2022-10-14T02:56:16.353Z,16.90
2022-10-14T02:56:35.693Z,17.00
2022-10-14T02:56:47.512Z,17.00
2022-10-14T02:56:59.274Z,17.00
2022-10-14T02:57:11.148Z,16.90
2022-10-14T02:57:23.440Z,17.00
2022-10-14T02:57:35.216Z,16.90
2022-10-14T02:57:47.034Z,16.90
2022-10-14T02:57:58.855Z,17.00
2022-10-14T02:58:10.652Z,17.00
2022-10-14T02:58:22.416Z,17.00
2022-10-14T02:58:34.235Z,17.00
2022-10-14T02:58:46.125Z,17.00
2022-10-14T02:58:58.191Z,17.00
2022-10-14T02:59:10.001Z,17.00
2022-10-14T02:59:21.797Z,17.00
2022-10-14T02:59:33.617Z,17.00
2022-10-14T02:59:45.403Z,17.00
2022-10-14T02:59:57.191Z,17.00
2022-10-14T03:00:09.879Z,17.00
2022-10-14T03:00:21.799Z,17.00
2022-10-14T03:00:33.608Z,17.00
2022-10-14T03:00:45.394Z,17.10
2022-10-14T03:00:57.227Z,17.00
2022-10-14T03:01:09.140Z,17.00
2022-10-14T03:01:21.052Z,17.00
2022-10-14T03:01:37.358Z,17.00
2022-10-14T03:01:49.986Z,17.00
2022-10-14T03:02:01.920Z,17.00
2022-10-14T03:02:13.847Z,17.00
2022-10-14T03:02:25.776Z,17.00
2022-10-14T03:02:37.551Z,17.00
2022-10-14T03:02:49.676Z,17.10
2022-10-14T03:03:01.540Z,17.10
2022-10-14T03:03:13.382Z,17.10
2022-10-14T03:03:25.218Z,17.10
2022-10-14T03:03:37.075Z,17.10
2022-10-14T03:03:48.848Z,17.10
2022-10-14T03:04:00.599Z,17.10
2022-10-14T03:04:12.366Z,17.10
2022-10-14T03:04:24.302Z,17.10
2022-10-14T03:04:36.194Z,17.10
2022-10-14T03:04:47.999Z,17.10
2022-10-14T03:04:59.856Z,17.10
2022-10-14T03:05:11.607Z,17.10
2022-10-14T03:05:23.469Z,17.00
2022-10-14T03:05:35.297Z,17.10
2022-10-14T03:05:47.098Z,17.00
2022-10-14T03:05:59.004Z,17.00
2022-10-14T03:06:10.814Z,17.00
2022-10-14T03:06:22.561Z,17.00
2022-10-14T03:06:34.318Z,17.00
2022-10-14T03:06:46.046Z,17.00
2022-10-14T03:06:57.817Z,17.00
2022-10-14T03:07:09.658Z,17.00
2022-10-14T03:07:21.446Z,17.00
2022-10-14T03:07:33.348Z,17.00
2022-10-14T03:07:45.086Z,17.00
2022-10-14T03:07:56.889Z,17.00
2022-10-14T03:08:08.683Z,17.10
2022-10-14T03:08:20.451Z,17.00
2022-10-14T03:08:32.251Z,17.00
2022-10-14T03:08:44.034Z,17.10
2022-10-14T03:08:55.846Z,17.10
2022-10-14T03:09:07.756Z,17.10
2022-10-14T03:09:20.262Z,17.10
2022-10-14T03:09:32.097Z,17.10
2022-10-14T03:09:43.902Z,17.10
2022-10-14T03:09:55.685Z,17.10
2022-10-14T03:10:07.938Z,17.10
2022-10-14T03:10:19.816Z,17.10
2022-10-14T03:10:31.631Z,17.10
2022-10-14T03:10:47.526Z,17.10
2022-10-14T03:10:59.276Z,17.10
2022-10-14T03:11:11.119Z,17.10
2022-10-14T03:11:22.890Z,17.20
2022-10-14T03:11:34.624Z,17.10
2022-10-14T03:11:46.381Z,17.20
2022-10-14T03:11:58.289Z,17.10
2022-10-14T03:12:10.064Z,17.20
2022-10-14T03:12:22.158Z,17.20
2022-10-14T03:12:34.147Z,17.20
2022-10-14T03:12:46.362Z,17.20
2022-10-14T03:12:58.230Z,17.20
2022-10-14T03:13:10.042Z,17.30
2022-10-14T03:13:21.792Z,17.30
2022-10-14T03:13:33.612Z,17.30
2022-10-14T03:13:45.406Z,17.30
2022-10-14T03:13:57.214Z,17.30
2022-10-14T03:14:08.996Z,17.30
2022-10-14T03:14:20.814Z,17.30
2022-10-14T03:14:32.654Z,17.30
2022-10-14T03:14:44.437Z,17.30
2022-10-14T03:14:56.225Z,17.30
2022-10-14T03:15:09.192Z,17.30
2022-10-14T03:15:20.989Z,17.30
2022-10-14T03:15:32.808Z,17.30
2022-10-14T03:15:44.694Z,17.30
2022-10-14T03:15:56.655Z,17.30
2022-10-14T03:16:08.935Z,17.30
2022-10-14T03:16:20.751Z,17.30
2022-10-14T03:16:32.574Z,17.30
2022-10-14T03:16:44.401Z,17.30
2022-10-14T03:16:56.249Z,17.30
2022-10-14T03:17:08.743Z,17.30
2022-10-14T03:17:20.639Z,17.30
2022-10-14T03:17:32.488Z,17.30
2022-10-14T03:17:44.281Z,17.30
2022-10-14T03:17:56.621Z,17.30
2022-10-14T03:18:08.507Z,17.30
2022-10-14T03:18:20.362Z,17.30
2022-10-14T03:18:32.209Z,17.30
2022-10-14T03:18:44.026Z,17.30
2022-10-14T03:18:55.870Z,17.30
2022-10-14T03:19:07.668Z,17.30
2022-10-14T03:19:19.554Z,17.30
2022-10-14T03:19:31.377Z,17.30
2022-10-14T03:19:43.159Z,17.30
2022-10-14T03:19:54.937Z,17.30
2022-10-14T03:20:07.419Z,17.30
2022-10-14T03:20:19.200Z,17.20
2022-10-14T03:20:31.446Z,17.30
2022-10-14T03:20:46.139Z,17.30